Latest Weather Observations for Broken Hill Airport

IDN60801

Issued at 6:05 pm EST Wednesday 23 April 2014 (issued every 30 minutes, with the page automatically refreshed every 10 minutes)

About weather observations | Map of weather stations | Latest weather observations for NSW | Other Formats
Station Details ID: 047048 Name: BROKEN HILL AIRPORT AWS Lat: -32.00 Lon: 141.47 Height: 281.3 m
Data from the previous 72 hours. | See also: Recent months for locations in New South Wales
Date/Time
EST
Temp
°C
App
Temp
°C
Dew
Point
Rel
Hum
%
Delta-T
°C
Wind Press
QNH
hPa
Press
MSL
hPa
Rain
since 9 am
mm
Dir
 
Spd
km/h
Gust
km/h
Spd
kts
Gust
kts
23/06:00pm 23.0 19.9 5.4 32 9.0 WNW 11 15 6 8 1014.0 - 0.0
23/05:30pm 25.4 21.4 5.1 27 10.4 WNW 15 24 8 13 1013.9 - 0.0
23/05:00pm 26.1 21.9 5.7 27 10.6 NW 17 24 9 13 1013.7 - 0.0
23/04:30pm 26.2 21.4 4.6 25 11.0 NW 19 28 10 15 1013.7 - 0.0
23/04:00pm 26.6 21.8 5.5 26 11.0 WNW 20 28 11 15 1013.8 - 0.0
23/03:30pm 26.5 21.6 4.9 25 11.1 NW 20 32 11 17 1014.0 1013.3 0.0
23/03:00pm 26.3 21.4 5.3 26 10.9 NNW 20 28 11 15 1014.1 - 0.0
23/02:30pm 26.1 21.9 5.7 27 10.6 NW 17 24 9 13 1014.4 - 0.0
23/02:00pm 25.2 22.6 7.8 33 9.4 NNW 11 17 6 9 1014.7 - 0.0
23/01:30pm 25.1 22.0 9.0 36 8.8 N 15 24 8 13 1015.1 - 0.0
23/01:00pm 23.6 21.2 8.8 39 8.0 N 11 20 6 11 1015.8 - 0.0
23/12:30pm 22.8 20.5 8.9 41 7.5 N 11 19 6 10 1016.4 1015.6 0.0
23/12:00pm 22.1 20.7 10.9 49 6.3 E 9 17 5 9 1016.9 - 0.0
23/11:30am 21.1 18.8 10.6 51 5.8 ENE 13 17 7 9 1017.2 - 0.0
23/11:00am 20.1 17.7 10.2 53 5.4 ENE 13 17 7 9 1017.5 - 0.0
23/10:30am 19.3 16.9 10.0 55 5.0 ENE 13 17 7 9 1017.6 - 0.0
23/10:00am 18.1 16.4 9.7 58 4.5 ESE 9 13 5 7 1017.8 - 0.0
23/09:30am 16.4 13.9 8.4 59 4.1 SE 11 17 6 9 1017.8 1017.1 0.0
23/09:00am 15.1 12.6 8.3 64 3.5 SSE 11 15 6 8 1017.9 - 0.0
23/08:30am 13.5 10.5 7.9 69 2.8 S 13 15 7 8 1017.8 - 0.0
23/08:00am 12.0 9.9 8.3 78 1.9 SSW 9 13 5 7 1017.7 - 0.0
23/07:30am 10.9 9.1 8.1 83 1.4 SW 7 9 4 5 1017.4 - 0.0
23/07:00am 10.8 8.9 7.7 81 1.5 SSW 7 9 4 5 1017.3 - 0.0
23/06:30am 11.3 9.1 8.0 80 1.6 SSW 9 11 5 6 1017.2 1016.5 0.0
23/06:00am 11.9 9.8 8.4 79 1.8 S 9 13 5 7 1017.0 - 0.0
23/05:30am 11.9 9.9 8.6 80 1.7 SSW 9 13 5 7 1017.0 - 0.0
23/05:00am 12.3 10.4 9.0 80 1.7 SSW 9 11 5 6 1017.0 - 0.0
23/04:30am 12.7 10.5 9.3 80 1.7 SSW 11 15 6 8 1016.8 - 0.0
23/04:00am 13.1 11.0 9.9 81 1.7 SSW 11 13 6 7 1017.0 - 0.0
23/03:30am 13.5 12.2 9.9 79 1.9 SSW 7 9 4 5 1016.9 1016.1 0.0
23/03:00am 14.0 12.5 10.4 79 1.9 S 9 13 5 7 1016.9 - 0.0
23/02:30am 14.3 13.2 10.7 79 1.9 S 7 13 4 7 1017.0 - 0.0
23/02:00am 14.9 13.1 10.7 76 2.2 S 11 15 6 8 1017.1 - 0.0
23/01:30am 15.4 13.6 11.0 75 2.4 S 11 17 6 9 1017.3 - 0.0
23/01:00am 15.1 13.7 10.9 76 2.3 S 9 11 5 6 1017.4 - 0.0
23/12:30am 15.6 14.3 11.2 75 2.4 SSE 9 15 5 8 1017.6 1016.9 0.0
23/12:00am 16.5 14.1 11.4 72 2.8 S 15 20 8 11 1017.8 - 0.0
 
Date/Time
EST
Temp
°C
App
Temp
°C
Dew
Point
Rel
Hum
%
Delta-T
°C
Wind Press
QNH
hPa
Press
MSL
hPa
Rain
since 9 am
mm
Dir
 
Spd
km/h
Gust
km/h
Spd
kts
Gust
kts
22/11:30pm 16.9 13.8 11.6 71 2.9 S 19 22 10 12 1017.6 - 0.0
22/11:00pm 17.3 14.5 11.3 68 3.3 S 17 20 9 11 1017.7 - 0.0
22/10:30pm 17.9 15.1 11.5 66 3.5 S 17 20 9 11 1017.7 - 0.0
22/10:00pm 18.5 15.5 11.8 65 3.7 S 19 22 10 12 1017.6 - 0.0
22/09:30pm 19.1 16.1 11.9 63 4.0 S 19 24 10 13 1017.5 1016.8 0.0
22/09:00pm 20.0 16.1 12.0 60 4.5 SSE 24 32 13 17 1017.1 - 0.0
22/08:30pm 20.0 14.8 5.3 38 7.3 SSW 22 28 12 15 1016.5 - 0.0
22/08:00pm 23.6 20.4 5.0 30 9.4 N 11 13 6 7 1015.9 - 0.0
22/07:30pm 23.7 20.8 4.6 29 9.6 N 9 11 5 6 1015.8 - 0.0
22/07:00pm 24.3 21.4 4.6 28 10.0 N 9 11 5 6 1015.5 - 0.0
22/06:30pm 24.5 21.2 4.8 28 10.0 N 11 13 6 7 1015.4 1014.7 0.0
22/06:00pm 25.4 22.1 4.5 26 10.6 NNW 11 15 6 8 1015.2 - 0.0
22/05:30pm 26.7 22.6 4.5 24 11.4 NW 15 20 8 11 1015.0 - 0.0
22/05:00pm 27.5 23.5 5.1 24 11.7 NW 15 26 8 14 1014.9 - 0.0
22/04:30pm 27.8 23.0 4.8 23 11.9 NW 19 26 10 14 1014.9 - 0.0
22/04:00pm 27.9 22.2 4.9 23 11.9 NW 24 33 13 18 1014.9 - 0.0
22/03:30pm 27.9 22.6 4.9 23 11.9 WNW 22 30 12 16 1014.9 1014.2 0.0
22/03:00pm 28.0 22.3 5.0 23 12.0 NW 24 30 13 16 1015.0 - 0.0
22/02:30pm 28.0 22.1 5.6 24 11.8 WNW 26 37 14 20 1015.2 - 0.0
22/02:00pm 27.6 21.8 4.6 23 11.9 WNW 24 33 13 18 1015.4 - 0.0
22/01:30pm 27.8 22.1 6.6 26 11.3 WNW 26 35 14 19 1015.8 - 0.0
22/01:00pm 27.3 21.2 5.0 24 11.6 NW 26 35 14 19 1016.2 - 0.0
22/12:30pm 26.9 21.3 5.2 25 11.3 NW 24 33 13 18 1016.8 1016.0 0.0
22/12:00pm 26.8 21.6 5.7 26 11.0 NW 22 32 12 17 1017.1 - 0.0
22/11:30am 26.0 20.9 6.1 28 10.4 NW 22 32 12 17 1017.3 - 0.0
22/11:00am 25.6 20.1 5.8 28 10.3 NNW 24 35 13 19 1017.4 - 0.0
22/10:30am 24.9 19.1 4.6 27 10.3 NNW 24 35 13 19 1017.5 - 0.0
22/10:00am 23.9 18.3 5.3 30 9.5 NNW 24 37 13 20 1017.8 - 0.0
22/09:30am 23.2 18.3 5.1 31 9.2 NNW 20 32 11 17 1017.7 1017.0 0.0
22/09:00am 22.7 17.8 5.2 32 8.9 NNW 20 28 11 15 1017.7 - 0.0
22/08:30am 21.5 17.1 5.0 34 8.2 NNW 17 24 9 13 1017.6 - 0.0
22/08:00am 20.8 16.4 4.8 35 7.9 N 17 20 9 11 1017.4 - 0.0
22/07:30am 19.8 15.4 4.7 37 7.4 N 17 24 9 13 1017.2 - 0.0
22/07:00am 19.7 14.9 4.6 37 7.4 N 19 26 10 14 1016.9 - 0.0
22/06:30am 19.8 14.9 4.3 36 7.5 N 19 28 10 15 1016.6 1015.8 0.0
22/06:00am 20.0 15.0 4.5 36 7.6 N 20 30 11 16 1016.4 - 0.0
22/05:30am 20.0 15.0 4.5 36 7.6 N 20 28 11 15 1016.3 - 0.0
22/05:00am 20.0 15.7 5.3 38 7.3 N 17 28 9 15 1016.2 - 0.0
22/04:30am 18.5 14.9 6.7 46 6.0 N 15 20 8 11 1016.1 - 0.0
22/04:00am 16.9 13.9 7.5 54 4.8 NNE 13 15 7 8 1016.1 - 0.0
22/03:30am 18.6 15.0 6.8 46 6.0 NNE 15 20 8 11 1016.1 1015.3 0.0
22/03:00am 18.9 15.7 7.0 46 6.1 NNE 13 19 7 10 1016.2 - 0.0
22/02:30am 18.3 15.4 8.0 51 5.3 NNE 13 17 7 9 1016.5 - 0.0
22/02:00am 17.2 14.9 8.9 58 4.4 NNE 11 11 6 6 1016.7 - 0.0
22/01:30am 17.5 15.6 8.9 57 4.5 N 9 13 5 7 1016.8 - 0.0
22/01:00am 16.2 13.1 8.9 62 3.8 NE 15 17 8 9 1016.6 - 0.0
22/12:30am 17.0 14.6 8.7 58 4.3 NNE 11 13 6 7 1016.9 1016.1 0.0
22/12:00am 17.4 14.4 9.1 58 4.4 NNE 15 17 8 9 1017.1 - 0.0
 
Date/Time
EST
Temp
°C
App
Temp
°C
Dew
Point
Rel
Hum
%
Delta-T
°C
Wind Press
QNH
hPa
Press
MSL
hPa
Rain
since 9 am
mm
Dir
 
Spd
km/h
Gust
km/h
Spd
kts
Gust
kts
21/11:30pm 17.6 14.5 9.0 57 4.5 NNE 15 19 8 10 1017.3 - 0.0
21/11:00pm 17.8 14.8 9.2 57 4.6 NE 15 17 8 9 1017.5 - 0.0
21/10:30pm 17.7 14.6 8.8 56 4.7 NE 15 17 8 9 1017.7 - 0.0
21/10:00pm 20.4 18.2 7.7 44 6.6 N 9 11 5 6 1017.8 - 0.0
21/09:30pm 20.6 18.4 7.9 44 6.7 N 9 11 5 6 1017.9 1017.2 0.0
21/09:00pm 20.6 18.8 7.9 44 6.7 N 7 9 4 5 1017.8 - 0.0
21/08:30pm 21.0 18.7 7.6 42 7.0 N 9 11 5 6 1017.7 - 0.0
21/08:00pm 21.6 19.4 7.8 41 7.3 N 9 11 5 6 1017.6 - 0.0
21/07:30pm 21.6 19.4 7.8 41 7.3 N 9 11 5 6 1017.6 - 0.0
21/07:00pm 21.8 19.5 7.6 40 7.5 N 9 11 5 6 1017.5 - 0.0
21/06:30pm 22.7 20.4 7.3 37 8.1 NNW 9 11 5 6 1017.4 1016.7 0.0
21/06:00pm 23.5 20.8 7.2 35 8.6 NW 11 15 6 8 1017.2 - 0.0
21/05:30pm 24.5 21.3 6.7 32 9.4 WNW 13 19 7 10 1017.0 - 0.0
21/05:00pm 25.1 21.4 6.3 30 9.8 WNW 15 20 8 11 1016.8 - 0.0
21/04:30pm 25.8 22.6 6.9 30 10.0 NW 13 19 7 10 1016.8 - 0.0
21/04:00pm 25.9 22.5 7.5 31 9.9 WNW 15 24 8 13 1017.0 - 0.0
21/03:30pm 26.3 22.8 7.4 30 10.1 NW 15 22 8 12 1017.0 1016.3 0.0
21/03:00pm 26.0 21.7 7.1 30 10.1 NNW 19 28 10 15 1017.2 - 0.0
21/02:30pm 25.6 21.2 7.2 31 9.8 WNW 20 33 11 18 1017.3 - 0.0
21/02:00pm 25.0 21.1 7.2 32 9.5 NNW 17 24 9 13 1017.6 - 0.0
21/01:30pm 25.3 21.8 7.4 32 9.6 NNW 15 22 8 12 1017.9 - 0.0
21/01:00pm 24.8 21.3 7.0 32 9.4 N 15 24 8 13 1018.4 - 0.0
21/12:30pm 24.6 21.2 7.7 34 9.0 N 15 22 8 12 1018.7 1018.0 0.0
21/12:00pm 23.8 20.3 7.4 35 8.7 N 15 22 8 12 1019.2 - 0.0
21/11:30am 23.3 19.4 7.0 35 8.6 N 17 26 9 14 1019.7 - 0.0
21/11:00am 22.9 18.9 6.6 35 8.5 N 17 24 9 13 1019.9 - 0.0
21/10:30am 22.4 19.1 8.1 40 7.6 N 15 22 8 12 1020.1 - 0.0
21/10:00am 21.8 18.8 9.3 45 6.8 NNE 15 20 8 11 1020.2 - 0.0
21/09:30am 20.3 17.3 9.2 49 5.9 N 15 20 8 11 1020.4 1019.7 0.0
21/09:00am 17.5 14.7 8.6 56 4.6 NNE 13 17 7 9 1020.6 - 0.0
21/08:30am 16.6 14.2 8.8 60 4.1 NNE 11 13 6 7 1020.3 - 0.0
21/08:00am 15.4 12.6 8.6 64 3.5 NNE 13 17 7 9 1020.2 - 0.0
21/07:30am 12.3 9.9 8.6 78 1.9 NE 11 13 6 7 1020.0 - 0.0
21/07:00am 11.4 8.7 7.5 77 1.9 NE 11 13 6 7 1019.6 - 0.0
21/06:30am 12.3 9.8 8.4 77 2.0 NE 11 13 6 7 1019.5 1018.7 0.0
21/06:00am 11.7 9.1 7.6 76 2.0 NE 11 13 6 7 1019.5 - 0.0
21/05:30am 12.4 9.8 7.7 73 2.3 NNE 11 13 6 7 1019.4 - 0.0
21/05:00am 13.2 10.6 7.9 70 2.7 NE 11 11 6 6 1019.0 - 0.0
21/04:30am 14.0 11.5 8.2 68 2.9 NNE 11 13 6 7 1018.8 - 0.0
21/04:00am 13.6 10.6 7.6 67 3.0 NNE 13 15 7 8 1018.7 - 0.0
21/03:30am 13.7 11.1 7.7 67 3.0 NE 11 13 6 7 1018.8 1018.1 0.0
21/03:00am 13.2 10.8 7.2 67 3.0 ENE 9 13 5 7 1018.9 - 0.0
21/02:30am 14.2 12.4 7.0 62 3.6 E 6 9 3 5 1019.2 - 0.0
21/02:00am 13.7 11.2 6.6 62 3.5 ESE 9 13 5 7 1019.4 - 0.0
21/01:30am 14.8 12.9 6.9 59 3.9 E 6 9 3 5 1019.6 - 0.0
21/01:00am 14.8 12.8 6.9 59 3.9 ENE 7 9 4 5 1019.7 - 0.0
21/12:30am 14.6 11.7 6.7 59 3.9 SE 11 15 6 8 1019.6 1018.8 0.0
21/12:00am 15.1 12.7 6.9 58 4.1 SE 9 15 5 8 1019.6 - 0.0
 
Date/Time
EST
Temp
°C
App
Temp
°C
Dew
Point
Rel
Hum
%
Delta-T
°C
Wind Press
QNH
hPa
Press
MSL
hPa
Rain
since 9 am
mm
Dir
 
Spd
km/h
Gust
km/h
Spd
kts
Gust
kts
20/11:30pm 15.4 12.7 7.2 58 4.1 SE 11 17 6 9 1019.7 - 0.0
20/11:00pm 14.8 13.7 7.1 60 3.8 SE 2 7 1 4 1020.0 - 0.0
20/10:30pm 14.8 13.1 7.4 61 3.7 S 6 7 3 4 1020.1 - 0.0
20/10:00pm 15.6 13.6 7.1 57 4.3 S 7 9 4 5 1020.1 - 0.0
20/09:30pm 15.9 14.0 7.4 57 4.3 SSW 7 7 4 4 1019.8 1019.0 0.0
20/09:00pm 16.7 16.1 7.4 54 4.7 CALM 0 0 0 0 1019.5 - 0.0
20/08:30pm 16.9 16.3 7.5 54 4.8 CALM 0 6 0 3 1019.4 - 0.0
20/08:00pm 17.0 15.1 7.4 53 4.9 S 7 9 4 5 1019.1 - 0.0
20/07:30pm 18.0 16.9 7.1 49 5.5 SSW 2 7 1 4 1018.8 - 0.0
20/07:00pm 18.6 16.2 7.1 47 5.9 SW 9 11 5 6 1018.5 - 0.0

Other Formats:

Comma delimited format used in spreadsheet applications
http://www.bom.gov.au/fwo/IDN60801/IDN60801.94691.axf

JavaScript Object Notation format (JSON) in row-major order
http://www.bom.gov.au/fwo/IDN60801/IDN60801.94691.json